sensor_id;sensor_type;location;lat;lon;timestamp;pressure;altitude;pressure_sealevel;temperature;humidity
30708;BME280;17458;48.958;8.284;2023-01-15T00:00:23;99042.00;;;13.45;72.83
30708;BME280;17458;48.958;8.284;2023-01-15T00:03:07;99025.94;;;13.42;72.82
30708;BME280;17458;48.958;8.284;2023-01-15T00:05:52;99047.09;;;13.33;73.39
30708;BME280;17458;48.958;8.284;2023-01-15T00:08:36;99046.00;;;13.22;74.35
30708;BME280;17458;48.958;8.284;2023-01-15T00:11:21;99021.19;;;13.26;74.52
30708;BME280;17458;48.958;8.284;2023-01-15T00:14:06;99034.38;;;13.20;74.45
30708;BME280;17458;48.958;8.284;2023-01-15T00:16:54;99033.59;;;13.24;73.95
30708;BME280;17458;48.958;8.284;2023-01-15T00:19:39;99022.78;;;13.15;75.05
30708;BME280;17458;48.958;8.284;2023-01-15T00:22:23;99022.03;;;13.23;74.08
30708;BME280;17458;48.958;8.284;2023-01-15T00:25:09;99010.63;;;13.30;72.97
30708;BME280;17458;48.958;8.284;2023-01-15T00:28:13;99014.19;;;13.31;73.49
30708;BME280;17458;48.958;8.284;2023-01-15T00:31:00;98994.44;;;13.21;73.90
30708;BME280;17458;48.958;8.284;2023-01-15T00:33:46;98982.22;;;13.34;73.17
30708;BME280;17458;48.958;8.284;2023-01-15T00:36:31;98997.44;;;13.39;72.68
30708;BME280;17458;48.958;8.284;2023-01-15T00:39:16;98983.13;;;13.34;71.97
30708;BME280;17458;48.958;8.284;2023-01-15T00:42:01;98981.56;;;13.48;71.40
30708;BME280;17458;48.958;8.284;2023-01-15T00:44:46;98992.63;;;13.71;70.77
30708;BME280;17458;48.958;8.284;2023-01-15T00:47:33;98977.28;;;13.57;71.40
30708;BME280;17458;48.958;8.284;2023-01-15T00:50:18;98981.81;;;13.12;73.11
30708;BME280;17458;48.958;8.284;2023-01-15T00:53:02;98980.50;;;13.37;73.41
30708;BME280;17458;48.958;8.284;2023-01-15T00:55:46;98965.34;;;13.33;74.35
30708;BME280;17458;48.958;8.284;2023-01-15T00:58:33;98984.38;;;13.05;75.46
30708;BME280;17458;48.958;8.284;2023-01-15T01:01:18;98954.66;;;13.32;74.33
30708;BME280;17458;48.958;8.284;2023-01-15T01:04:02;98947.94;;;13.04;75.37
30708;BME280;17458;48.958;8.284;2023-01-15T01:06:46;98955.16;;;13.12;75.38
30708;BME280;17458;48.958;8.284;2023-01-15T01:09:31;98946.03;;;12.98;76.55
30708;BME280;17458;48.958;8.284;2023-01-15T01:12:15;98950.25;;;12.86;77.43
30708;BME280;17458;48.958;8.284;2023-01-15T01:14:59;98950.25;;;12.86;77.32
30708;BME280;17458;48.958;8.284;2023-01-15T01:17:43;98958.31;;;12.89;76.75
30708;BME280;17458;48.958;8.284;2023-01-15T01:20:27;98945.03;;;12.92;77.76
30708;BME280;17458;48.958;8.284;2023-01-15T01:23:11;98956.41;;;12.83;78.17
30708;BME280;17458;48.958;8.284;2023-01-15T01:25:56;98950.69;;;13.10;77.41
30708;BME280;17458;48.958;8.284;2023-01-15T01:28:41;98938.97;;;13.00;77.06
30708;BME280;17458;48.958;8.284;2023-01-15T01:31:25;98939.09;;;13.08;78.03
30708;BME280;17458;48.958;8.284;2023-01-15T01:34:10;98927.81;;;12.73;79.19
30708;BME280;17458;48.958;8.284;2023-01-15T01:36:54;98928.16;;;12.93;79.22
30708;BME280;17458;48.958;8.284;2023-01-15T01:39:38;98927.06;;;12.80;79.20
30708;BME280;17458;48.958;8.284;2023-01-15T01:42:22;98938.91;;;12.97;78.05
30708;BME280;17458;48.958;8.284;2023-01-15T01:45:32;98926.19;;;12.81;78.76
30708;BME280;17458;48.958;8.284;2023-01-15T01:48:17;98929.03;;;12.92;78.30
30708;BME280;17458;48.958;8.284;2023-01-15T01:51:03;98923.28;;;13.16;78.45
30708;BME280;17458;48.958;8.284;2023-01-15T01:53:50;98932.72;;;12.98;78.41
30708;BME280;17458;48.958;8.284;2023-01-15T01:56:34;98906.47;;;13.21;77.73
30708;BME280;17458;48.958;8.284;2023-01-15T01:59:20;98920.72;;;13.23;78.08
30708;BME280;17458;48.958;8.284;2023-01-15T02:02:05;98909.97;;;13.16;77.73
30708;BME280;17458;48.958;8.284;2023-01-15T02:04:53;98911.56;;;13.09;77.50
30708;BME280;17458;48.958;8.284;2023-01-15T02:07:37;98912.38;;;13.03;78.65
30708;BME280;17458;48.958;8.284;2023-01-15T02:10:21;98895.13;;;13.34;77.50
30708;BME280;17458;48.958;8.284;2023-01-15T02:13:10;98910.16;;;13.28;77.54
30708;BME280;17458;48.958;8.284;2023-01-15T02:16:10;98905.69;;;13.27;77.57
30708;BME280;17458;48.958;8.284;2023-01-15T02:25:18;98885.28;;;13.29;77.72
30708;BME280;17458;48.958;8.284;2023-01-15T02:28:14;98876.25;;;13.19;77.85
30708;BME280;17458;48.958;8.284;2023-01-15T02:31:17;98875.69;;;13.41;78.40
30708;BME280;17458;48.958;8.284;2023-01-15T02:34:11;98873.56;;;13.18;78.92
30708;BME280;17458;48.958;8.284;2023-01-15T02:37:09;98878.03;;;13.20;79.56
30708;BME280;17458;48.958;8.284;2023-01-15T02:39:57;98861.84;;;13.09;80.00
30708;BME280;17458;48.958;8.284;2023-01-15T02:42:44;98857.31;;;13.05;79.62
30708;BME280;17458;48.958;8.284;2023-01-15T02:45:31;98840.91;;;13.31;79.20
30708;BME280;17458;48.958;8.284;2023-01-15T02:48:25;98868.25;;;13.21;79.12
30708;BME280;17458;48.958;8.284;2023-01-15T02:51:14;98841.72;;;13.27;78.82
30708;BME280;17458;48.958;8.284;2023-01-15T02:54:01;98833.69;;;13.25;78.33
30708;BME280;17458;48.958;8.284;2023-01-15T02:56:52;98840.09;;;13.38;77.31
30708;BME280;17458;48.958;8.284;2023-01-15T02:59:40;98831.16;;;13.33;76.46
30708;BME280;17458;48.958;8.284;2023-01-15T03:02:30;98844.00;;;13.63;76.10
30708;BME280;17458;48.958;8.284;2023-01-15T03:05:22;98842.94;;;13.50;76.31
30708;BME280;17458;48.958;8.284;2023-01-15T03:08:08;98828.09;;;13.69;75.45
30708;BME280;17458;48.958;8.284;2023-01-15T03:11:04;98835.94;;;13.57;75.92
30708;BME280;17458;48.958;8.284;2023-01-15T03:16:58;98834.44;;;13.78;74.68
30708;BME280;17458;48.958;8.284;2023-01-15T03:22:39;98841.69;;;13.89;73.96
30708;BME280;17458;48.958;8.284;2023-01-15T03:25:33;98836.22;;;13.79;73.77
30708;BME280;17458;48.958;8.284;2023-01-15T03:28:27;98845.31;;;13.95;73.55
30708;BME280;17458;48.958;8.284;2023-01-15T03:31:15;98841.84;;;14.01;72.63
30708;BME280;17458;48.958;8.284;2023-01-15T03:33:59;98871.28;;;14.08;72.42
30708;BME280;17458;48.958;8.284;2023-01-15T03:36:44;98882.66;;;13.94;73.01
30708;BME280;17458;48.958;8.284;2023-01-15T03:39:32;98888.94;;;13.97;74.49
30708;BME280;17458;48.958;8.284;2023-01-15T03:45:23;98931.78;;;14.08;75.16
30708;BME280;17458;48.958;8.284;2023-01-15T03:48:19;98965.06;;;13.71;77.67
30708;BME280;17458;48.958;8.284;2023-01-15T03:51:17;98965.56;;;13.48;80.09
30708;BME280;17458;48.958;8.284;2023-01-15T03:54:06;98982.00;;;12.73;83.61
30708;BME280;17458;48.958;8.284;2023-01-15T03:56:58;98996.31;;;12.35;85.50
30708;BME280;17458;48.958;8.284;2023-01-15T03:59:50;98996.53;;;11.69;84.41
30708;BME280;17458;48.958;8.284;2023-01-15T04:02:37;98983.56;;;11.45;82.51
30708;BME280;17458;48.958;8.284;2023-01-15T04:05:27;99016.25;;;10.75;83.54
30708;BME280;17458;48.958;8.284;2023-01-15T04:08:12;99013.75;;;10.80;83.15
30708;BME280;17458;48.958;8.284;2023-01-15T04:10:59;99026.97;;;10.78;83.48
30708;BME280;17458;48.958;8.284;2023-01-15T04:13:48;99008.41;;;10.78;82.03
30708;BME280;17458;48.958;8.284;2023-01-15T04:16:53;99010.56;;;10.93;81.75
30708;BME280;17458;48.958;8.284;2023-01-15T04:19:41;99018.94;;;11.08;81.41
30708;BME280;17458;48.958;8.284;2023-01-15T04:22:27;99030.00;;;11.25;80.19
30708;BME280;17458;48.958;8.284;2023-01-15T04:25:10;99024.03;;;11.33;79.83
30708;BME280;17458;48.958;8.284;2023-01-15T04:27:54;99033.69;;;11.30;80.24
30708;BME280;17458;48.958;8.284;2023-01-15T04:30:38;99047.09;;;11.01;80.66
30708;BME280;17458;48.958;8.284;2023-01-15T04:33:25;99040.84;;;10.99;79.80
30708;BME280;17458;48.958;8.284;2023-01-15T04:36:09;99050.34;;;10.60;80.26
30708;BME280;17458;48.958;8.284;2023-01-15T04:38:54;99049.50;;;10.92;79.58
30708;BME280;17458;48.958;8.284;2023-01-15T04:41:40;99046.97;;;10.65;79.97
30708;BME280;17458;48.958;8.284;2023-01-15T04:44:43;99056.75;;;10.67;79.87
30708;BME280;17458;48.958;8.284;2023-01-15T04:47:30;99066.75;;;10.77;79.43
30708;BME280;17458;48.958;8.284;2023-01-15T04:50:15;99071.03;;;10.42;80.09
30708;BME280;17458;48.958;8.284;2023-01-15T04:52:59;99074.28;;;10.61;79.18
30708;BME280;17458;48.958;8.284;2023-01-15T04:55:44;99074.63;;;10.44;80.04
30708;BME280;17458;48.958;8.284;2023-01-15T04:58:32;99075.38;;;10.38;81.14
30708;BME280;17458;48.958;8.284;2023-01-15T05:01:16;99084.41;;;10.75;79.01
30708;BME280;17458;48.958;8.284;2023-01-15T05:04:01;99105.41;;;10.67;78.03
30708;BME280;17458;48.958;8.284;2023-01-15T05:06:45;99109.25;;;10.77;78.62
30708;BME280;17458;48.958;8.284;2023-01-15T05:09:30;99112.28;;;10.04;80.61
30708;BME280;17458;48.958;8.284;2023-01-15T05:12:15;99108.50;;;10.22;80.27
30708;BME280;17458;48.958;8.284;2023-01-15T05:14:59;99101.66;;;10.30;78.39
30708;BME280;17458;48.958;8.284;2023-01-15T05:17:43;99118.94;;;9.91;78.20
30708;BME280;17458;48.958;8.284;2023-01-15T05:20:27;99129.59;;;10.19;76.92
30708;BME280;17458;48.958;8.284;2023-01-15T05:23:12;99132.41;;;9.72;75.93
30708;BME280;17458;48.958;8.284;2023-01-15T05:25:56;99128.78;;;9.95;75.81
30708;BME280;17458;48.958;8.284;2023-01-15T05:28:44;99139.66;;;9.50;77.38
30708;BME280;17458;48.958;8.284;2023-01-15T05:31:30;99134.28;;;9.74;76.50
30708;BME280;17458;48.958;8.284;2023-01-15T05:34:20;99147.31;;;9.43;76.41
30708;BME280;17458;48.958;8.284;2023-01-15T05:37:04;99146.66;;;9.48;77.13
30708;BME280;17458;48.958;8.284;2023-01-15T05:39:48;99145.75;;;10.00;76.37
30708;BME280;17458;48.958;8.284;2023-01-15T05:42:33;99153.25;;;9.36;77.12
30708;BME280;17458;48.958;8.284;2023-01-15T05:45:17;99159.28;;;9.32;77.51
30708;BME280;17458;48.958;8.284;2023-01-15T05:48:01;99152.56;;;9.92;75.10
30708;BME280;17458;48.958;8.284;2023-01-15T05:50:46;99170.97;;;10.14;75.14
30708;BME280;17458;48.958;8.284;2023-01-15T05:53:30;99161.75;;;9.51;75.97
30708;BME280;17458;48.958;8.284;2023-01-15T05:56:20;99148.69;;;9.57;75.96
30708;BME280;17458;48.958;8.284;2023-01-15T05:59:05;99150.78;;;9.66;75.55
30708;BME280;17458;48.958;8.284;2023-01-15T06:01:51;99153.53;;;9.43;76.61
30708;BME280;17458;48.958;8.284;2023-01-15T06:04:35;99175.19;;;9.32;76.40
30708;BME280;17458;48.958;8.284;2023-01-15T06:07:19;99188.13;;;9.48;75.79
30708;BME280;17458;48.958;8.284;2023-01-15T06:10:03;99189.34;;;9.32;75.95
30708;BME280;17458;48.958;8.284;2023-01-15T06:12:47;99208.91;;;9.36;75.79
30708;BME280;17458;48.958;8.284;2023-01-15T06:15:31;99216.69;;;9.56;75.96
30708;BME280;17458;48.958;8.284;2023-01-15T06:18:15;99229.84;;;9.06;76.77
30708;BME280;17458;48.958;8.284;2023-01-15T06:21:04;99215.50;;;9.23;77.17
30708;BME280;17458;48.958;8.284;2023-01-15T06:23:48;99211.66;;;9.15;76.07
30708;BME280;17458;48.958;8.284;2023-01-15T06:26:36;99223.09;;;9.14;76.33
30708;BME280;17458;48.958;8.284;2023-01-15T06:29:21;99226.03;;;8.98;75.76
30708;BME280;17458;48.958;8.284;2023-01-15T06:32:08;99235.41;;;9.36;75.24
30708;BME280;17458;48.958;8.284;2023-01-15T06:34:52;99240.50;;;9.07;75.45
30708;BME280;17458;48.958;8.284;2023-01-15T06:37:36;99261.69;;;8.63;76.95
30708;BME280;17458;48.958;8.284;2023-01-15T06:40:20;99269.75;;;8.88;76.50
30708;BME280;17458;48.958;8.284;2023-01-15T06:43:08;99273.22;;;9.32;75.28
30708;BME280;17458;48.958;8.284;2023-01-15T06:46:12;99282.16;;;9.11;75.73
30708;BME280;17458;48.958;8.284;2023-01-15T06:49:15;99288.19;;;9.31;75.62
30708;BME280;17458;48.958;8.284;2023-01-15T06:52:00;99280.63;;;9.18;75.65
30708;BME280;17458;48.958;8.284;2023-01-15T06:54:44;99294.38;;;9.08;76.09
30708;BME280;17458;48.958;8.284;2023-01-15T06:57:28;99304.06;;;9.07;76.06
30708;BME280;17458;48.958;8.284;2023-01-15T07:00:13;99297.09;;;9.09;76.29
30708;BME280;17458;48.958;8.284;2023-01-15T07:03:01;99311.00;;;9.28;76.01
30708;BME280;17458;48.958;8.284;2023-01-15T07:05:46;99312.56;;;9.45;75.53
30708;BME280;17458;48.958;8.284;2023-01-15T07:08:30;99323.84;;;9.63;75.10
30708;BME280;17458;48.958;8.284;2023-01-15T07:11:14;99331.63;;;9.35;76.46
30708;BME280;17458;48.958;8.284;2023-01-15T07:13:57;99352.88;;;9.36;76.66
30708;BME280;17458;48.958;8.284;2023-01-15T07:16:51;99349.72;;;9.46;76.75
30708;BME280;17458;48.958;8.284;2023-01-15T07:19:35;99355.47;;;9.58;75.97
30708;BME280;17458;48.958;8.284;2023-01-15T07:22:20;99354.06;;;9.44;76.80
30708;BME280;17458;48.958;8.284;2023-01-15T07:25:05;99355.41;;;9.57;76.36
30708;BME280;17458;48.958;8.284;2023-01-15T07:27:49;99352.03;;;9.37;76.60
30708;BME280;17458;48.958;8.284;2023-01-15T07:30:33;99359.22;;;9.41;76.12
30708;BME280;17458;48.958;8.284;2023-01-15T07:33:17;99374.78;;;9.32;76.40
30708;BME280;17458;48.958;8.284;2023-01-15T07:36:02;99379.91;;;9.05;76.59
30708;BME280;17458;48.958;8.284;2023-01-15T07:38:46;99399.78;;;9.39;76.06
30708;BME280;17458;48.958;8.284;2023-01-15T07:41:30;99401.47;;;9.37;75.30
30708;BME280;17458;48.958;8.284;2023-01-15T07:44:33;99395.44;;;9.18;76.02
30708;BME280;17458;48.958;8.284;2023-01-15T07:47:37;99412.88;;;9.13;76.37
30708;BME280;17458;48.958;8.284;2023-01-15T07:50:40;99432.84;;;8.84;77.08
30708;BME280;17458;48.958;8.284;2023-01-15T07:53:24;99425.69;;;9.03;76.74
30708;BME280;17458;48.958;8.284;2023-01-15T07:56:08;99422.34;;;9.07;76.75
30708;BME280;17458;48.958;8.284;2023-01-15T07:58:53;99430.75;;;8.97;76.53
30708;BME280;17458;48.958;8.284;2023-01-15T08:01:37;99433.06;;;8.89;77.14
30708;BME280;17458;48.958;8.284;2023-01-15T08:04:24;99431.38;;;9.34;75.74
30708;BME280;17458;48.958;8.284;2023-01-15T08:07:08;99433.69;;;9.04;76.78
30708;BME280;17458;48.958;8.284;2023-01-15T08:09:52;99425.31;;;8.94;77.39
30708;BME280;17458;48.958;8.284;2023-01-15T08:12:36;99441.00;;;8.89;77.17
30708;BME280;17458;48.958;8.284;2023-01-15T08:15:40;99447.00;;;9.06;76.67
30708;BME280;17458;48.958;8.284;2023-01-15T08:18:26;99459.06;;;8.99;76.35
30708;BME280;17458;48.958;8.284;2023-01-15T08:21:14;99469.34;;;9.12;76.04
30708;BME280;17458;48.958;8.284;2023-01-15T08:23:58;99476.06;;;8.43;76.82
30708;BME280;17458;48.958;8.284;2023-01-15T08:26:42;99470.25;;;8.71;76.23
30708;BME280;17458;48.958;8.284;2023-01-15T08:29:26;99477.28;;;8.71;75.02
30708;BME280;17458;48.958;8.284;2023-01-15T08:32:11;99485.56;;;8.38;75.80
30708;BME280;17458;48.958;8.284;2023-01-15T08:34:55;99479.38;;;8.38;75.27
30708;BME280;17458;48.958;8.284;2023-01-15T08:37:40;99492.78;;;8.42;74.92
30708;BME280;17458;48.958;8.284;2023-01-15T08:40:24;99478.91;;;8.29;74.61
30708;BME280;17458;48.958;8.284;2023-01-15T08:43:08;99491.34;;;8.49;74.37
30708;BME280;17458;48.958;8.284;2023-01-15T08:45:55;99490.22;;;8.84;72.83
30708;BME280;17458;48.958;8.284;2023-01-15T08:48:40;99511.97;;;8.77;72.65
30708;BME280;17458;48.958;8.284;2023-01-15T08:51:24;99501.69;;;8.84;72.95
30708;BME280;17458;48.958;8.284;2023-01-15T08:54:08;99509.47;;;8.80;73.51
30708;BME280;17458;48.958;8.284;2023-01-15T08:56:52;99516.25;;;8.54;75.37
30708;BME280;17458;48.958;8.284;2023-01-15T08:59:36;99522.66;;;8.59;76.00
30708;BME280;17458;48.958;8.284;2023-01-15T09:02:23;99523.22;;;8.33;76.62
30708;BME280;17458;48.958;8.284;2023-01-15T09:05:07;99530.59;;;8.59;76.22
30708;BME280;17458;48.958;8.284;2023-01-15T09:07:51;99538.09;;;8.31;76.72
30708;BME280;17458;48.958;8.284;2023-01-15T09:10:35;99538.78;;;8.27;77.47
30708;BME280;17458;48.958;8.284;2023-01-15T09:13:18;99549.56;;;8.31;76.15
30708;BME280;17458;48.958;8.284;2023-01-15T09:16:04;99553.88;;;8.10;77.19
30708;BME280;17458;48.958;8.284;2023-01-15T09:18:49;99566.13;;;8.08;77.52
30708;BME280;17458;48.958;8.284;2023-01-15T09:21:33;99586.22;;;8.04;77.49
30708;BME280;17458;48.958;8.284;2023-01-15T09:24:17;99572.91;;;8.03;77.09
30708;BME280;17458;48.958;8.284;2023-01-15T09:27:01;99576.59;;;8.24;76.04
30708;BME280;17458;48.958;8.284;2023-01-15T09:29:45;99575.63;;;7.85;77.37
30708;BME280;17458;48.958;8.284;2023-01-15T09:32:29;99583.94;;;8.12;77.08
30708;BME280;17458;48.958;8.284;2023-01-15T09:35:15;99602.81;;;8.19;76.46
30708;BME280;17458;48.958;8.284;2023-01-15T09:37:59;99605.41;;;8.00;77.38
30708;BME280;17458;48.958;8.284;2023-01-15T09:40:52;99607.81;;;8.13;77.29
30708;BME280;17458;48.958;8.284;2023-01-15T09:43:53;99603.75;;;8.02;78.21
30708;BME280;17458;48.958;8.284;2023-01-15T09:46:49;99621.16;;;8.16;77.45
30708;BME280;17458;48.958;8.284;2023-01-15T09:49:53;99617.34;;;8.10;77.41
30708;BME280;17458;48.958;8.284;2023-01-15T09:55:45;99629.81;;;7.95;75.48
30708;BME280;17458;48.958;8.284;2023-01-15T09:58:33;99640.25;;;7.92;76.72
30708;BME280;17458;48.958;8.284;2023-01-15T10:01:24;99640.63;;;7.81;77.05
30708;BME280;17458;48.958;8.284;2023-01-15T10:07:22;99661.31;;;7.90;76.34
30708;BME280;17458;48.958;8.284;2023-01-15T10:10:14;99661.50;;;7.59;77.07
30708;BME280;17458;48.958;8.284;2023-01-15T10:13:38;99676.88;;;7.84;76.29
30708;BME280;17458;48.958;8.284;2023-01-15T10:16:28;99668.69;;;7.62;77.07
30708;BME280;17458;48.958;8.284;2023-01-15T10:19:14;99687.13;;;7.60;76.79
30708;BME280;17458;48.958;8.284;2023-01-15T10:22:14;99695.47;;;7.86;75.80
30708;BME280;17458;48.958;8.284;2023-01-15T10:25:04;99701.34;;;7.80;75.81
30708;BME280;17458;48.958;8.284;2023-01-15T10:27:51;99691.91;;;7.85;76.67
30708;BME280;17458;48.958;8.284;2023-01-15T10:30:46;99695.59;;;7.71;75.79
30708;BME280;17458;48.958;8.284;2023-01-15T10:36:42;99697.78;;;7.79;75.96
30708;BME280;17458;48.958;8.284;2023-01-15T10:39:34;99705.59;;;7.60;75.58
30708;BME280;17458;48.958;8.284;2023-01-15T10:43:06;99707.78;;;7.51;75.13
30708;BME280;17458;48.958;8.284;2023-01-15T10:45:52;99720.25;;;7.54;76.16
30708;BME280;17458;48.958;8.284;2023-01-15T10:48:42;99720.63;;;7.43;74.29
30708;BME280;17458;48.958;8.284;2023-01-15T10:51:36;99730.38;;;7.28;74.95
30708;BME280;17458;48.958;8.284;2023-01-15T11:00:04;99708.63;;;7.00;74.53
30708;BME280;17458;48.958;8.284;2023-01-15T11:05:38;99703.00;;;7.10;74.30
30708;BME280;17458;48.958;8.284;2023-01-15T11:08:24;99687.59;;;7.35;74.83
30708;BME280;17458;48.958;8.284;2023-01-15T11:11:48;99687.03;;;7.59;73.75
30708;BME280;17458;48.958;8.284;2023-01-15T11:14:43;99667.72;;;7.60;72.85
30708;BME280;17458;48.958;8.284;2023-01-15T11:17:46;99688.69;;;7.23;74.12
30708;BME280;17458;48.958;8.284;2023-01-15T11:20:49;99684.16;;;7.20;73.70
30708;BME280;17458;48.958;8.284;2023-01-15T11:23:34;99688.31;;;6.99;74.50
30708;BME280;17458;48.958;8.284;2023-01-15T11:26:22;99681.34;;;7.17;73.30
30708;BME280;17458;48.958;8.284;2023-01-15T11:29:20;99689.28;;;7.17;73.11
30708;BME280;17458;48.958;8.284;2023-01-15T11:32:30;99706.09;;;7.19;72.92
30708;BME280;17458;48.958;8.284;2023-01-15T11:35:16;99695.16;;;7.11;74.19
30708;BME280;17458;48.958;8.284;2023-01-15T11:38:13;99700.81;;;7.19;73.13
30708;BME280;17458;48.958;8.284;2023-01-15T11:41:01;99698.28;;;7.21;72.82
30708;BME280;17458;48.958;8.284;2023-01-15T11:43:55;99702.81;;;7.23;73.06
30708;BME280;17458;48.958;8.284;2023-01-15T11:46:59;99693.25;;;7.09;72.33
30708;BME280;17458;48.958;8.284;2023-01-15T11:50:01;99711.19;;;7.32;72.86
30708;BME280;17458;48.958;8.284;2023-01-15T11:53:08;99705.25;;;7.36;72.11
30708;BME280;17458;48.958;8.284;2023-01-15T11:55:59;99700.19;;;7.57;71.84
30708;BME280;17458;48.958;8.284;2023-01-15T11:58:46;99700.91;;;7.21;71.88
30708;BME280;17458;48.958;8.284;2023-01-15T12:01:37;99700.78;;;7.52;70.72
30708;BME280;17458;48.958;8.284;2023-01-15T12:04:33;99702.84;;;7.57;70.73
30708;BME280;17458;48.958;8.284;2023-01-15T12:07:18;99723.00;;;7.73;70.56
30708;BME280;17458;48.958;8.284;2023-01-15T12:10:15;99720.44;;;7.57;70.77
30708;BME280;17458;48.958;8.284;2023-01-15T12:16:42;99722.50;;;7.80;70.19
30708;BME280;17458;48.958;8.284;2023-01-15T12:25:45;99714.13;;;8.06;69.48
30708;BME280;17458;48.958;8.284;2023-01-15T12:28:39;99720.00;;;8.01;69.35
30708;BME280;17458;48.958;8.284;2023-01-15T12:31:44;99717.91;;;8.11;69.54
30708;BME280;17458;48.958;8.284;2023-01-15T12:34:49;99730.53;;;8.35;68.97
30708;BME280;17458;48.958;8.284;2023-01-15T12:37:44;99717.91;;;8.11;69.19
30708;BME280;17458;48.958;8.284;2023-01-15T12:40:47;99709.16;;;8.12;68.44
30708;BME280;17458;48.958;8.284;2023-01-15T12:43:32;99720.19;;;8.39;68.19
30708;BME280;17458;48.958;8.284;2023-01-15T12:46:38;99712.75;;;8.50;67.86
30708;BME280;17458;48.958;8.284;2023-01-15T12:52:13;99715.03;;;8.79;67.51
30708;BME280;17458;48.958;8.284;2023-01-15T12:55:08;99708.72;;;8.58;67.38
30708;BME280;17458;48.958;8.284;2023-01-15T12:58:00;99700.50;;;8.52;67.81
30708;BME280;17458;48.958;8.284;2023-01-15T13:00:45;99701.34;;;8.51;68.41
30708;BME280;17458;48.958;8.284;2023-01-15T13:03:37;99703.25;;;8.53;68.16
30708;BME280;17458;48.958;8.284;2023-01-15T13:06:26;99702.94;;;8.47;68.10
30708;BME280;17458;48.958;8.284;2023-01-15T13:12:15;99707.38;;;8.85;66.96
30708;BME280;17458;48.958;8.284;2023-01-15T13:26:28;99703.00;;;8.49;67.33
30708;BME280;17458;48.958;8.284;2023-01-15T13:29:34;99702.34;;;8.53;66.48
30708;BME280;17458;48.958;8.284;2023-01-15T13:32:27;99701.81;;;8.79;66.44
30708;BME280;17458;48.958;8.284;2023-01-15T13:35:28;99694.97;;;8.65;66.02
30708;BME280;17458;48.958;8.284;2023-01-15T13:38:20;99703.00;;;8.49;66.76
30708;BME280;17458;48.958;8.284;2023-01-15T13:41:09;99686.19;;;8.66;66.78
30708;BME280;17458;48.958;8.284;2023-01-15T13:43:59;99691.00;;;8.38;67.67
30708;BME280;17458;48.958;8.284;2023-01-15T13:46:46;99703.16;;;8.52;68.10
30708;BME280;17458;48.958;8.284;2023-01-15T13:49:35;99708.16;;;8.46;68.24
30708;BME280;17458;48.958;8.284;2023-01-15T13:52:30;99708.69;;;8.76;67.95
30708;BME280;17458;48.958;8.284;2023-01-15T13:55:37;99714.06;;;8.77;67.63
30708;BME280;17458;48.958;8.284;2023-01-15T13:58:27;99719.66;;;8.83;66.97
30708;BME280;17458;48.958;8.284;2023-01-15T14:06:55;99723.56;;;8.55;69.69
30708;BME280;17458;48.958;8.284;2023-01-15T14:09:38;99716.53;;;8.55;70.91
30708;BME280;17458;48.958;8.284;2023-01-15T14:21:26;99726.97;;;7.99;72.84
30708;BME280;17458;48.958;8.284;2023-01-15T14:24:46;99723.94;;;8.27;72.11
30708;BME280;17458;48.958;8.284;2023-01-15T14:27:45;99733.78;;;8.47;71.46
30708;BME280;17458;48.958;8.284;2023-01-15T14:33:49;99742.19;;;8.75;70.08
30708;BME280;17458;48.958;8.284;2023-01-15T14:40:16;99744.09;;;8.41;70.36
30708;BME280;17458;48.958;8.284;2023-01-15T14:43:08;99743.91;;;8.56;69.61
30708;BME280;17458;48.958;8.284;2023-01-15T14:45:53;99750.13;;;8.75;68.50
30708;BME280;17458;48.958;8.284;2023-01-15T14:48:38;99743.34;;;8.80;68.54
30708;BME280;17458;48.958;8.284;2023-01-15T14:51:31;99743.84;;;8.73;67.70
30708;BME280;17458;48.958;8.284;2023-01-15T14:54:18;99736.16;;;9.16;67.18
30708;BME280;17458;48.958;8.284;2023-01-15T14:57:07;99743.63;;;9.25;66.22
30708;BME280;17458;48.958;8.284;2023-01-15T14:59:56;99735.38;;;8.80;67.05
30708;BME280;17458;48.958;8.284;2023-01-15T15:02:46;99745.78;;;8.95;67.60
30708;BME280;17458;48.958;8.284;2023-01-15T15:05:32;99758.03;;;9.12;67.21
30708;BME280;17458;48.958;8.284;2023-01-15T15:08:18;99749.47;;;8.62;68.57
30708;BME280;17458;48.958;8.284;2023-01-15T15:11:03;99741.50;;;8.79;68.30
30708;BME280;17458;48.958;8.284;2023-01-15T15:14:09;99731.00;;;9.00;67.97
30708;BME280;17458;48.958;8.284;2023-01-15T15:17:00;99746.06;;;9.01;68.31
30708;BME280;17458;48.958;8.284;2023-01-15T15:19:52;99724.75;;;8.98;67.54
30708;BME280;17458;48.958;8.284;2023-01-15T15:22:40;99726.13;;;8.90;67.48
30708;BME280;17458;48.958;8.284;2023-01-15T15:25:30;99725.38;;;8.93;66.67
30708;BME280;17458;48.958;8.284;2023-01-15T15:28:16;99714.53;;;8.69;67.08
30708;BME280;17458;48.958;8.284;2023-01-15T15:31:00;99716.84;;;8.80;67.02
30708;BME280;17458;48.958;8.284;2023-01-15T15:33:44;99725.72;;;8.81;66.69
30708;BME280;17458;48.958;8.284;2023-01-15T15:36:31;99715.94;;;8.80;66.72
30708;BME280;17458;48.958;8.284;2023-01-15T15:39:19;99721.84;;;8.74;66.10
30708;BME280;17458;48.958;8.284;2023-01-15T15:42:17;99720.59;;;8.85;66.29
30708;BME280;17458;48.958;8.284;2023-01-15T15:45:24;99732.47;;;8.94;65.38
30708;BME280;17458;48.958;8.284;2023-01-15T15:48:30;99717.03;;;8.85;65.35
30708;BME280;17458;48.958;8.284;2023-01-15T15:51:51;99717.13;;;9.06;64.82
30708;BME280;17458;48.958;8.284;2023-01-15T15:54:35;99716.72;;;8.77;64.80
30708;BME280;17458;48.958;8.284;2023-01-15T15:57:19;99713.72;;;8.70;65.00
30708;BME280;17458;48.958;8.284;2023-01-15T16:00:03;99726.31;;;8.75;65.18
30708;BME280;17458;48.958;8.284;2023-01-15T16:02:48;99717.28;;;9.09;64.68
30708;BME280;17458;48.958;8.284;2023-01-15T16:05:32;99719.50;;;9.00;64.75
30708;BME280;17458;48.958;8.284;2023-01-15T16:08:19;99716.22;;;8.67;64.50
30708;BME280;17458;48.958;8.284;2023-01-15T16:11:05;99723.25;;;8.66;64.52
30708;BME280;17458;48.958;8.284;2023-01-15T16:13:53;99708.47;;;8.71;64.41
30708;BME280;17458;48.958;8.284;2023-01-15T16:16:37;99704.91;;;8.51;64.93
30708;BME280;17458;48.958;8.284;2023-01-15T16:19:22;99711.34;;;8.76;64.97
30708;BME280;17458;48.958;8.284;2023-01-15T16:22:12;99708.53;;;8.73;64.94
30708;BME280;17458;48.958;8.284;2023-01-15T16:24:58;99694.06;;;8.65;64.44